createdAt,value
2018-11-07T00:01:54.142Z,99.90
2018-11-07T00:04:22.914Z,99.90
2018-11-07T00:06:51.660Z,99.90
2018-11-07T00:09:20.485Z,99.90
2018-11-07T00:11:49.254Z,99.90
2018-11-07T00:14:17.938Z,99.90
2018-11-07T00:16:46.779Z,99.90
2018-11-07T00:19:15.517Z,99.90
2018-11-07T00:21:44.266Z,99.90
2018-11-07T00:24:13.031Z,99.90
2018-11-07T00:26:41.945Z,99.90
2018-11-07T00:29:10.717Z,99.90
2018-11-07T00:31:39.486Z,99.90
2018-11-07T00:34:08.298Z,99.90
2018-11-07T00:36:37.032Z,99.90
2018-11-07T00:39:07.621Z,99.90
2018-11-07T00:41:36.392Z,99.90
2018-11-07T00:44:05.465Z,99.90
2018-11-07T00:46:34.630Z,99.90
2018-11-07T00:49:03.447Z,99.90
2018-11-07T00:51:32.278Z,99.90
2018-11-07T00:54:01.029Z,99.90
2018-11-07T00:56:29.825Z,99.90
2018-11-07T00:58:58.565Z,99.90
2018-11-07T01:01:27.456Z,99.90
2018-11-07T01:04:01.099Z,99.90
2018-11-07T01:06:29.872Z,99.90
2018-11-07T01:08:58.774Z,99.90
2018-11-07T01:11:27.609Z,99.90
2018-11-07T01:13:56.363Z,99.90
2018-11-07T01:16:25.244Z,99.90
2018-11-07T01:18:53.984Z,99.90
2018-11-07T01:21:22.810Z,99.90
2018-11-07T01:23:51.708Z,99.90
2018-11-07T01:26:20.478Z,99.90
2018-11-07T01:28:49.237Z,99.90
2018-11-07T01:31:17.968Z,99.90
2018-11-07T01:33:46.831Z,99.90
2018-11-07T01:36:15.641Z,99.90
2018-11-07T01:38:44.411Z,99.90
2018-11-07T01:41:13.281Z,99.90
2018-11-07T01:43:42.126Z,99.90
2018-11-07T01:46:10.929Z,99.90
2018-11-07T01:48:39.719Z,99.90
2018-11-07T01:51:08.577Z,99.90
2018-11-07T01:53:37.356Z,99.90
2018-11-07T01:56:06.477Z,99.90
2018-11-07T01:58:35.204Z,99.90
2018-11-07T02:01:04.178Z,99.90
2018-11-07T02:03:32.873Z,99.90
2018-11-07T02:06:01.635Z,99.90
2018-11-07T02:08:31.414Z,99.90
2018-11-07T02:11:01.000Z,99.90
2018-11-07T02:13:29.787Z,99.90
2018-11-07T02:15:58.731Z,99.90
2018-11-07T02:18:35.597Z,99.90
2018-11-07T02:21:09.712Z,99.90
2018-11-07T02:23:46.257Z,99.90
2018-11-07T02:26:21.656Z,99.90
2018-11-07T02:28:55.453Z,99.90
2018-11-07T02:31:29.143Z,99.90
2018-11-07T02:34:03.643Z,99.90
2018-11-07T02:36:39.515Z,99.90
2018-11-07T02:39:14.840Z,99.90
2018-11-07T02:41:49.850Z,99.90
2018-11-07T02:44:23.817Z,99.90
2018-11-07T02:46:58.763Z,99.90
2018-11-07T02:49:33.672Z,99.90
2018-11-07T02:52:12.891Z,99.90
2018-11-07T02:54:46.124Z,99.90
2018-11-07T02:57:19.268Z,99.90
2018-11-07T02:59:54.999Z,99.90
2018-11-07T03:02:29.510Z,99.90
2018-11-07T03:05:03.715Z,99.90
2018-11-07T03:07:38.422Z,99.90
2018-11-07T03:10:14.720Z,99.90
2018-11-07T03:12:49.077Z,99.90
2018-11-07T03:15:23.789Z,99.90
2018-11-07T03:17:58.982Z,99.90
2018-11-07T03:20:33.366Z,99.90
2018-11-07T03:23:06.258Z,99.90
2018-11-07T03:25:39.895Z,99.90
2018-11-07T03:28:18.850Z,99.90
2018-11-07T03:30:51.921Z,99.90
2018-11-07T03:33:23.693Z,99.90
2018-11-07T03:35:58.019Z,99.90
2018-11-07T03:38:26.777Z,99.90
2018-11-07T03:40:55.666Z,99.90
2018-11-07T03:43:24.525Z,99.90
2018-11-07T03:45:59.275Z,99.90
2018-11-07T03:48:29.605Z,99.90
2018-11-07T03:50:58.606Z,99.90
2018-11-07T03:53:28.415Z,99.90
2018-11-07T03:55:57.297Z,99.90
2018-11-07T03:58:26.093Z,99.90
2018-11-07T04:00:54.901Z,99.90
2018-11-07T04:03:23.736Z,99.90
2018-11-07T04:05:52.658Z,99.90
2018-11-07T04:08:21.565Z,99.90
2018-11-07T04:10:50.358Z,99.90
2018-11-07T04:13:19.078Z,99.90
2018-11-07T04:15:47.973Z,99.90
2018-11-07T04:18:16.712Z,99.90
2018-11-07T04:20:45.561Z,99.90
2018-11-07T04:23:14.358Z,99.90
2018-11-07T04:25:43.196Z,99.90
2018-11-07T04:28:12.040Z,99.90
2018-11-07T04:30:40.757Z,99.90
2018-11-07T04:33:09.543Z,99.90
2018-11-07T04:35:38.307Z,99.90
2018-11-07T04:38:07.117Z,99.90
2018-11-07T04:40:35.861Z,99.90
2018-11-07T04:43:04.803Z,99.90
2018-11-07T04:45:33.606Z,99.90
2018-11-07T04:48:02.457Z,99.90
2018-11-07T04:50:31.262Z,99.90
2018-11-07T04:53:00.035Z,99.90
2018-11-07T04:55:28.849Z,99.90
2018-11-07T04:57:57.696Z,99.90
2018-11-07T05:00:26.477Z,99.90
2018-11-07T05:02:55.453Z,99.90
2018-11-07T05:05:24.247Z,99.90
2018-11-07T05:07:53.187Z,99.90
2018-11-07T05:10:21.863Z,99.90
2018-11-07T05:12:50.655Z,99.90
2018-11-07T05:15:19.468Z,99.90
2018-11-07T05:17:48.344Z,99.90
2018-11-07T05:20:17.162Z,99.90
2018-11-07T05:22:45.983Z,99.90
2018-11-07T05:25:14.685Z,99.90
2018-11-07T05:27:43.496Z,99.90
2018-11-07T05:30:12.569Z,99.90
2018-11-07T05:32:41.818Z,99.90
2018-11-07T05:35:10.658Z,99.90
2018-11-07T05:37:39.560Z,99.90
2018-11-07T05:40:08.462Z,99.90
2018-11-07T05:42:37.322Z,99.90
2018-11-07T05:45:06.457Z,99.90
2018-11-07T05:47:35.324Z,99.90
2018-11-07T05:50:04.165Z,99.90
2018-11-07T05:52:32.903Z,99.90
2018-11-07T05:55:01.807Z,99.90
2018-11-07T05:57:30.638Z,99.90
2018-11-07T05:59:59.643Z,99.90
2018-11-07T06:02:28.382Z,99.90
2018-11-07T06:04:57.168Z,99.90
2018-11-07T06:07:26.016Z,99.90
2018-11-07T06:09:54.876Z,99.90
2018-11-07T06:12:23.793Z,99.90
2018-11-07T06:14:52.568Z,99.90
2018-11-07T06:17:21.409Z,99.90
2018-11-07T06:19:50.416Z,99.90
2018-11-07T06:22:19.267Z,99.90
2018-11-07T06:24:48.304Z,99.90
2018-11-07T06:27:17.183Z,99.90
2018-11-07T06:29:46.097Z,99.90
2018-11-07T06:32:14.845Z,99.90
2018-11-07T06:34:43.752Z,99.90
2018-11-07T06:37:12.777Z,99.90
2018-11-07T06:39:41.628Z,99.90
2018-11-07T06:42:10.495Z,99.90
2018-11-07T06:44:39.367Z,99.90
2018-11-07T06:47:08.159Z,99.90
2018-11-07T06:49:37.095Z,99.90
2018-11-07T06:52:06.349Z,99.90
2018-11-07T06:54:35.225Z,99.90
2018-11-07T06:57:05.434Z,99.90
2018-11-07T06:59:34.283Z,99.90
2018-11-07T07:02:03.119Z,99.90
2018-11-07T07:04:31.837Z,99.90
2018-11-07T07:14:03.357Z,99.90
2018-11-07T07:16:32.480Z,99.90
2018-11-07T07:19:01.574Z,99.90
2018-11-07T07:21:30.805Z,99.90
2018-11-07T07:24:00.511Z,99.90
2018-11-07T07:26:29.560Z,99.90
2018-11-07T07:28:58.566Z,99.90
2018-11-07T07:31:28.017Z,99.90
2018-11-07T07:33:57.531Z,99.90
2018-11-07T07:36:33.159Z,99.90
2018-11-07T07:39:02.786Z,99.90
2018-11-07T07:41:32.006Z,99.90
2018-11-07T07:44:01.277Z,99.90
2018-11-07T07:46:31.172Z,99.90
2018-11-07T07:49:00.693Z,99.90
2018-11-07T07:51:29.916Z,99.90
2018-11-07T07:54:00.453Z,99.90
2018-11-07T07:56:29.772Z,99.90
2018-11-07T07:58:59.338Z,99.90
2018-11-07T08:01:28.565Z,99.90
2018-11-07T08:03:57.810Z,99.90
2018-11-07T08:06:28.205Z,99.90
2018-11-07T08:08:58.149Z,99.90
2018-11-07T08:11:28.093Z,99.90
2018-11-07T08:13:58.892Z,99.90
2018-11-07T08:16:28.692Z,99.90
2018-11-07T08:18:58.622Z,99.90
2018-11-07T08:21:28.844Z,99.90
2018-11-07T08:23:59.943Z,99.80
2018-11-07T08:26:30.399Z,91.90
2018-11-07T08:29:00.562Z,80.90
2018-11-07T08:31:29.869Z,68.10
2018-11-07T08:33:59.013Z,62.50
2018-11-07T08:36:28.364Z,57.50
2018-11-07T08:38:57.556Z,51.20
2018-11-07T08:41:26.513Z,48.70
2018-11-07T08:43:55.413Z,46.80
2018-11-07T08:46:24.918Z,43.70
2018-11-07T08:48:54.624Z,40.90
2018-11-07T08:51:23.637Z,38.70
2018-11-07T08:53:53.524Z,38.40
2018-11-07T08:56:23.265Z,37.80
2018-11-07T08:58:52.523Z,36.00
2018-11-07T09:01:22.808Z,35.30
2018-11-07T09:03:54.680Z,33.70
2018-11-07T09:06:24.760Z,31.80
2018-11-07T09:08:55.196Z,31.60
2018-11-07T09:11:26.798Z,30.70
2018-11-07T09:14:05.678Z,29.00
2018-11-07T09:16:35.545Z,28.60
2018-11-07T09:19:04.689Z,29.00
2018-11-07T09:21:33.562Z,28.20
2018-11-07T09:24:11.691Z,26.90
2018-11-07T09:26:42.036Z,27.20
2018-11-07T09:29:12.483Z,26.70
2018-11-07T09:31:41.828Z,26.20
2018-11-07T09:34:11.001Z,25.80
2018-11-07T09:36:40.037Z,26.40
2018-11-07T09:39:11.031Z,28.20
2018-11-07T09:41:39.954Z,33.80
2018-11-07T09:44:08.821Z,36.50
2018-11-07T09:46:38.674Z,42.50
2018-11-07T09:49:09.891Z,47.30
2018-11-07T09:51:38.987Z,51.60
2018-11-07T09:54:08.149Z,54.40
2018-11-07T09:56:38.160Z,47.10
2018-11-07T09:59:07.180Z,37.30
2018-11-07T10:01:36.846Z,31.10
2018-11-07T10:04:07.238Z,28.40
2018-11-07T10:06:36.830Z,27.10
2018-11-07T10:09:09.474Z,26.10
2018-11-07T10:11:38.526Z,24.20
2018-11-07T10:14:07.948Z,24.40
2018-11-07T10:16:38.263Z,23.40
2018-11-07T10:19:07.335Z,22.70
2018-11-07T10:21:36.062Z,22.80
2018-11-07T10:24:05.012Z,22.20
2018-11-07T10:26:40.186Z,22.90
2018-11-07T10:29:09.260Z,22.10
2018-11-07T10:31:39.169Z,22.30
2018-11-07T10:34:09.105Z,21.40
2018-11-07T10:36:38.888Z,21.10
2018-11-07T10:39:10.460Z,19.90
2018-11-07T10:41:42.216Z,20.80
2018-11-07T10:44:15.636Z,20.20
2018-11-07T10:46:44.829Z,19.70
2018-11-07T10:49:24.355Z,19.40
2018-11-07T10:51:53.471Z,19.70
2018-11-07T10:54:23.362Z,20.30
2018-11-07T10:56:52.209Z,19.40
2018-11-07T10:59:21.085Z,19.20
2018-11-07T11:01:55.726Z,19.60
2018-11-07T11:04:25.023Z,19.30
2018-11-07T11:06:55.412Z,19.00
2018-11-07T11:09:25.576Z,19.10
2018-11-07T11:11:55.280Z,19.30
2018-11-07T11:14:50.318Z,19.00
2018-11-07T11:17:20.338Z,19.70
2018-11-07T11:20:03.441Z,18.80
2018-11-07T11:22:38.647Z,18.50
2018-11-07T11:25:08.213Z,18.90
2018-11-07T11:27:37.166Z,19.00
2018-11-07T11:30:07.122Z,22.20
2018-11-07T11:32:36.335Z,25.70
2018-11-07T11:35:07.414Z,28.80
2018-11-07T11:37:37.054Z,31.20
2018-11-07T11:40:21.824Z,34.90
2018-11-07T11:42:50.719Z,38.50
2018-11-07T11:45:19.509Z,38.80
2018-11-07T11:47:48.565Z,41.90
2018-11-07T11:50:18.534Z,44.70
2018-11-07T11:52:48.355Z,45.20
2018-11-07T11:55:17.199Z,45.30
2018-11-07T11:57:46.495Z,47.60
2018-11-07T12:00:19.740Z,48.50
2018-11-07T12:02:48.907Z,50.10
2018-11-07T12:05:18.549Z,51.90
2018-11-07T12:07:47.345Z,54.40
2018-11-07T12:10:19.236Z,57.00
2018-11-07T12:12:49.334Z,55.90
2018-11-07T12:15:19.077Z,54.90
2018-11-07T12:17:47.989Z,57.10
2018-11-07T12:20:16.865Z,55.70
2018-11-07T12:22:46.089Z,56.40
2018-11-07T12:25:15.558Z,58.10
2018-11-07T12:27:44.642Z,59.10
2018-11-07T12:30:16.450Z,60.30
2018-11-07T12:32:46.625Z,62.60
2018-11-07T12:35:16.251Z,62.10
2018-11-07T12:37:46.021Z,61.60
2018-11-07T12:40:15.350Z,61.70
2018-11-07T12:42:44.222Z,60.20
2018-11-07T12:45:14.618Z,60.50
2018-11-07T12:47:43.491Z,63.40
2018-11-07T12:50:18.861Z,63.00
2018-11-07T12:52:47.912Z,64.70
2018-11-07T12:55:17.316Z,64.70
2018-11-07T12:57:46.128Z,65.50
2018-11-07T13:00:17.503Z,67.10
2018-11-07T13:02:48.153Z,66.80
2018-11-07T13:05:18.291Z,66.50
2018-11-07T13:07:48.453Z,67.50
2018-11-07T13:10:18.480Z,67.60
2018-11-07T13:12:47.929Z,70.30
2018-11-07T13:15:17.300Z,69.50
2018-11-07T13:17:46.863Z,70.10
2018-11-07T13:20:17.921Z,70.70
2018-11-07T13:22:48.051Z,71.40
2018-11-07T13:25:17.521Z,72.90
2018-11-07T13:27:46.441Z,72.40
2018-11-07T13:30:17.636Z,73.60
2018-11-07T13:32:47.934Z,73.50
2018-11-07T13:35:18.313Z,74.70
2018-11-07T13:37:49.178Z,74.60
2018-11-07T13:40:22.096Z,75.50
2018-11-07T13:42:53.471Z,74.50
2018-11-07T13:45:23.981Z,75.90
2018-11-07T13:47:54.731Z,76.10
2018-11-07T13:50:24.642Z,77.20
2018-11-07T13:52:54.342Z,77.80
2018-11-07T13:55:24.658Z,77.60
2018-11-07T13:57:54.287Z,77.40
2018-11-07T14:00:24.399Z,76.30
2018-11-07T14:02:54.325Z,76.60
2018-11-07T14:05:23.708Z,76.40
2018-11-07T14:07:56.374Z,75.70
2018-11-07T14:10:54.276Z,76.40
2018-11-07T14:13:23.220Z,72.20
2018-11-07T14:15:52.245Z,75.50
2018-11-07T14:18:21.099Z,75.70
2018-11-07T14:20:50.600Z,75.90
2018-11-07T14:23:20.610Z,76.50
2018-11-07T14:25:50.612Z,76.40
2018-11-07T14:28:23.236Z,76.40
2018-11-07T14:30:55.609Z,77.00
2018-11-07T14:33:36.364Z,76.80
2018-11-07T14:36:05.750Z,76.80
2018-11-07T14:38:34.923Z,77.60
2018-11-07T14:41:06.970Z,76.60
2018-11-07T14:43:36.335Z,78.00
2018-11-07T14:46:05.617Z,78.60
2018-11-07T14:48:45.253Z,79.20
2018-11-07T14:51:14.144Z,79.00
2018-11-07T14:53:43.179Z,80.40
2018-11-07T14:56:13.852Z,81.80
2018-11-07T14:58:44.161Z,82.70
2018-11-07T15:01:16.332Z,83.60
2018-11-07T15:03:46.502Z,84.90
2018-11-07T15:06:16.013Z,86.30
2018-11-07T15:08:45.209Z,85.70
2018-11-07T15:11:14.207Z,86.60
2018-11-07T15:13:43.499Z,88.00
2018-11-07T15:16:15.006Z,88.80
2018-11-07T15:18:44.538Z,90.00
2018-11-07T15:21:13.497Z,90.20
2018-11-07T15:23:42.618Z,90.80
2018-11-07T15:26:12.429Z,91.10
2018-11-07T15:28:41.520Z,91.80
2018-11-07T15:31:10.694Z,92.60
2018-11-07T15:33:39.554Z,93.10
2018-11-07T15:36:08.939Z,93.10
2018-11-07T15:38:39.071Z,94.00
2018-11-07T15:41:08.321Z,94.80
2018-11-07T15:43:38.210Z,95.20
2018-11-07T15:46:07.553Z,95.90
2018-11-07T15:48:36.608Z,96.40
2018-11-07T15:51:10.774Z,97.20
2018-11-07T15:53:40.197Z,97.90
2018-11-07T15:56:09.407Z,98.60
2018-11-07T15:58:40.038Z,99.30
2018-11-07T16:01:09.219Z,99.90
2018-11-07T16:03:43.914Z,99.90
2018-11-07T16:06:12.923Z,99.90
2018-11-07T16:08:41.874Z,99.90
2018-11-07T16:11:10.842Z,99.90
2018-11-07T16:13:39.957Z,99.90
2018-11-07T16:16:08.962Z,99.90
2018-11-07T16:18:38.452Z,99.90
2018-11-07T16:21:08.272Z,99.90
2018-11-07T16:23:38.194Z,99.90
2018-11-07T16:26:17.826Z,99.90
2018-11-07T16:28:47.494Z,99.90
2018-11-07T16:31:17.059Z,99.90
2018-11-07T16:33:47.033Z,99.90
2018-11-07T16:36:16.476Z,99.90
2018-11-07T16:38:45.827Z,99.90
2018-11-07T16:41:14.727Z,99.90
2018-11-07T16:43:44.302Z,99.90
2018-11-07T16:46:13.454Z,99.90
2018-11-07T16:48:42.427Z,99.90
2018-11-07T16:51:11.381Z,99.90
2018-11-07T16:53:40.613Z,99.90
2018-11-07T16:56:09.946Z,99.90
2018-11-07T16:58:39.216Z,99.90
2018-11-07T17:01:08.810Z,99.90
2018-11-07T17:03:39.828Z,99.90
2018-11-07T17:06:08.782Z,99.90
2018-11-07T17:08:37.974Z,99.90
2018-11-07T17:11:07.017Z,99.90
2018-11-07T17:13:35.959Z,99.90
2018-11-07T17:16:05.157Z,99.90
2018-11-07T17:18:34.173Z,99.90
2018-11-07T17:21:03.297Z,99.90
2018-11-07T17:23:32.666Z,99.90
2018-11-07T17:26:02.900Z,99.90
2018-11-07T17:28:32.367Z,99.90
2018-11-07T17:31:02.154Z,99.90
2018-11-07T17:33:32.288Z,99.90
2018-11-07T17:36:01.864Z,99.90
2018-11-07T17:38:31.491Z,99.90
2018-11-07T17:41:01.224Z,99.90
2018-11-07T17:43:30.625Z,99.90
2018-11-07T17:45:59.889Z,99.90
2018-11-07T17:48:28.981Z,99.90
2018-11-07T17:50:57.963Z,99.90
2018-11-07T17:53:26.831Z,99.90
2018-11-07T17:55:56.032Z,99.90
2018-11-07T17:58:25.154Z,99.90
2018-11-07T18:00:54.162Z,99.90
2018-11-07T18:03:22.942Z,99.90
2018-11-07T18:05:51.754Z,99.90
2018-11-07T18:08:20.742Z,99.90
2018-11-07T18:10:49.549Z,99.90
2018-11-07T18:13:18.431Z,99.90
2018-11-07T18:15:47.402Z,99.90
2018-11-07T18:18:16.163Z,99.90
2018-11-07T18:20:45.142Z,99.90
2018-11-07T18:23:14.416Z,99.90
2018-11-07T18:25:43.316Z,99.90
2018-11-07T18:28:12.401Z,99.90
2018-11-07T18:30:41.400Z,99.90
2018-11-07T18:33:10.507Z,99.90
2018-11-07T18:35:39.442Z,99.90
2018-11-07T18:38:08.372Z,99.90
2018-11-07T18:40:37.217Z,99.90
2018-11-07T18:43:06.378Z,99.90
2018-11-07T18:45:35.307Z,99.90
2018-11-07T18:48:04.395Z,99.90
2018-11-07T18:50:33.740Z,99.90
2018-11-07T18:53:02.699Z,99.90
2018-11-07T18:55:31.586Z,99.90
2018-11-07T18:58:00.501Z,99.90
2018-11-07T19:00:29.409Z,99.90
2018-11-07T19:02:58.675Z,99.90
2018-11-07T19:05:27.755Z,99.90
2018-11-07T19:07:57.038Z,99.90
2018-11-07T19:10:26.635Z,99.90
2018-11-07T19:12:56.101Z,99.90
2018-11-07T19:15:24.988Z,99.90
2018-11-07T19:17:54.337Z,99.90
2018-11-07T19:20:23.354Z,99.90
2018-11-07T19:22:52.950Z,99.90
2018-11-07T19:25:22.402Z,99.90
2018-11-07T19:27:51.387Z,99.90
2018-11-07T19:30:22.097Z,99.90
2018-11-07T19:32:52.239Z,99.90
2018-11-07T19:35:22.024Z,99.90
2018-11-07T19:37:51.671Z,99.90
2018-11-07T19:40:23.138Z,99.90
2018-11-07T19:42:52.063Z,99.90
2018-11-07T19:45:21.766Z,99.90
2018-11-07T19:47:51.089Z,99.90
2018-11-07T19:50:21.188Z,99.90
2018-11-07T19:52:50.936Z,99.90
2018-11-07T19:55:21.234Z,99.90
2018-11-07T19:57:55.638Z,99.90
2018-11-07T20:00:24.501Z,99.90
2018-11-07T20:02:53.541Z,99.90
2018-11-07T20:05:22.624Z,99.90
2018-11-07T20:07:51.518Z,99.90
2018-11-07T20:10:21.099Z,99.90
2018-11-07T20:12:49.984Z,99.90
2018-11-07T20:15:20.039Z,99.90
2018-11-07T20:17:49.824Z,99.90
2018-11-07T20:20:19.004Z,99.90
2018-11-07T20:22:48.057Z,99.90
2018-11-07T20:25:17.131Z,99.90
2018-11-07T20:27:46.036Z,99.90
2018-11-07T20:30:16.325Z,99.90
2018-11-07T20:32:45.351Z,99.90
2018-11-07T20:35:16.743Z,99.90
2018-11-07T20:37:45.917Z,99.90
2018-11-07T20:40:16.504Z,99.90
2018-11-07T20:42:45.379Z,99.90
2018-11-07T20:45:14.940Z,99.90
2018-11-07T20:47:43.794Z,99.90
2018-11-07T20:50:15.561Z,99.90
2018-11-07T20:52:44.943Z,99.90
2018-11-07T20:55:14.498Z,99.90
2018-11-07T20:57:43.423Z,99.90
2018-11-07T21:00:22.790Z,99.90
2018-11-07T21:02:52.273Z,99.90
2018-11-07T21:05:27.899Z,99.90
2018-11-07T21:08:04.778Z,99.90
2018-11-07T21:10:34.223Z,99.90
2018-11-07T21:13:03.574Z,99.90
2018-11-07T21:15:32.651Z,99.90
2018-11-07T21:18:02.357Z,99.90
2018-11-07T21:20:31.413Z,99.90
2018-11-07T21:23:00.994Z,99.90
2018-11-07T21:25:31.411Z,99.90
2018-11-07T21:28:01.115Z,99.90
2018-11-07T21:30:31.912Z,99.90
2018-11-07T21:33:01.599Z,99.90
2018-11-07T21:35:31.273Z,99.90
2018-11-07T21:38:01.074Z,99.90
2018-11-07T21:40:31.072Z,99.90
2018-11-07T21:43:00.574Z,99.90
2018-11-07T21:45:29.682Z,99.90
2018-11-07T21:47:58.549Z,99.90
2018-11-07T21:50:27.526Z,99.90
2018-11-07T21:52:56.481Z,99.90
2018-11-07T21:55:25.614Z,99.90
2018-11-07T21:57:54.633Z,99.90
2018-11-07T22:00:23.779Z,99.90
2018-11-07T22:02:52.984Z,99.90
2018-11-07T22:05:21.931Z,99.90
2018-11-07T22:07:51.004Z,99.90
2018-11-07T22:10:20.016Z,99.90
2018-11-07T22:12:48.902Z,99.90
2018-11-07T22:15:18.091Z,99.90
2018-11-07T22:17:46.981Z,99.90
2018-11-07T22:20:21.578Z,99.90
2018-11-07T22:22:50.386Z,99.90
2018-11-07T22:25:19.821Z,99.90
2018-11-07T22:27:50.337Z,99.90
2018-11-07T22:30:20.509Z,99.90
2018-11-07T22:32:50.326Z,99.90
2018-11-07T22:35:19.686Z,99.90
2018-11-07T22:37:48.685Z,99.90
2018-11-07T22:40:19.497Z,99.90
2018-11-07T22:42:48.649Z,99.90
2018-11-07T22:45:17.600Z,99.90
2018-11-07T22:47:46.552Z,99.90
2018-11-07T22:50:16.185Z,99.90
2018-11-07T22:52:45.926Z,99.90
2018-11-07T22:55:14.947Z,99.90
2018-11-07T22:57:44.007Z,99.90
2018-11-07T23:00:22.229Z,99.90
2018-11-07T23:02:53.812Z,99.90
2018-11-07T23:05:22.793Z,99.90
2018-11-07T23:07:52.403Z,99.90
2018-11-07T23:10:21.520Z,99.90
2018-11-07T23:12:50.700Z,99.90
2018-11-07T23:15:24.904Z,99.90
2018-11-07T23:17:53.942Z,99.90
2018-11-07T23:20:23.034Z,99.90
2018-11-07T23:22:51.928Z,99.90
2018-11-07T23:25:20.904Z,99.90
2018-11-07T23:27:49.841Z,99.90
2018-11-07T23:30:19.065Z,99.90
